sensor_id;sensor_type;location;lat;lon;timestamp;P1;durP1;ratioP1;P2;durP2;ratioP2
85077;SDS011;75413;50.144;8.456;2024-01-15T00:01:13;22.15;;;9.65;;
85077;SDS011;75413;50.144;8.456;2024-01-15T00:03:56;17.80;;;7.50;;
85077;SDS011;75413;50.144;8.456;2024-01-15T00:06:40;26.55;;;8.85;;
85077;SDS011;75413;50.144;8.456;2024-01-15T00:09:24;18.30;;;8.43;;
85077;SDS011;75413;50.144;8.456;2024-01-15T00:12:08;20.60;;;8.60;;
85077;SDS011;75413;50.144;8.456;2024-01-15T00:14:53;21.63;;;8.73;;
85077;SDS011;75413;50.144;8.456;2024-01-15T00:17:38;21.45;;;10.02;;
85077;SDS011;75413;50.144;8.456;2024-01-15T00:20:22;23.30;;;9.20;;
85077;SDS011;75413;50.144;8.456;2024-01-15T00:23:06;17.35;;;7.55;;
85077;SDS011;75413;50.144;8.456;2024-01-15T00:25:53;21.55;;;8.93;;
85077;SDS011;75413;50.144;8.456;2024-01-15T00:28:37;22.10;;;8.80;;
85077;SDS011;75413;50.144;8.456;2024-01-15T00:31:22;20.38;;;8.90;;
85077;SDS011;75413;50.144;8.456;2024-01-15T00:34:06;16.20;;;6.72;;
85077;SDS011;75413;50.144;8.456;2024-01-15T00:36:50;20.33;;;8.13;;
85077;SDS011;75413;50.144;8.456;2024-01-15T00:39:34;22.77;;;7.13;;
85077;SDS011;75413;50.144;8.456;2024-01-15T00:42:17;20.20;;;7.40;;
85077;SDS011;75413;50.144;8.456;2024-01-15T00:45:01;23.98;;;9.50;;
85077;SDS011;75413;50.144;8.456;2024-01-15T00:47:46;19.63;;;8.63;;
85077;SDS011;75413;50.144;8.456;2024-01-15T00:50:30;22.15;;;9.13;;
85077;SDS011;75413;50.144;8.456;2024-01-15T00:53:14;19.38;;;8.52;;
85077;SDS011;75413;50.144;8.456;2024-01-15T00:55:58;25.05;;;12.73;;
85077;SDS011;75413;50.144;8.456;2024-01-15T00:58:42;28.20;;;14.38;;
85077;SDS011;75413;50.144;8.456;2024-01-15T01:01:26;28.98;;;14.20;;
85077;SDS011;75413;50.144;8.456;2024-01-15T01:04:10;71.68;;;35.55;;
85077;SDS011;75413;50.144;8.456;2024-01-15T01:06:54;23.58;;;10.10;;
85077;SDS011;75413;50.144;8.456;2024-01-15T01:09:38;21.42;;;9.20;;
85077;SDS011;75413;50.144;8.456;2024-01-15T01:12:22;23.15;;;11.02;;
85077;SDS011;75413;50.144;8.456;2024-01-15T01:15:06;25.60;;;11.65;;
85077;SDS011;75413;50.144;8.456;2024-01-15T01:17:50;19.50;;;9.32;;
85077;SDS011;75413;50.144;8.456;2024-01-15T01:20:34;53.72;;;25.98;;
85077;SDS011;75413;50.144;8.456;2024-01-15T01:23:18;40.80;;;16.50;;
85077;SDS011;75413;50.144;8.456;2024-01-15T01:26:02;33.30;;;13.15;;
85077;SDS011;75413;50.144;8.456;2024-01-15T01:28:45;46.53;;;19.42;;
85077;SDS011;75413;50.144;8.456;2024-01-15T01:31:29;51.38;;;23.52;;
85077;SDS011;75413;50.144;8.456;2024-01-15T01:34:14;31.73;;;15.40;;
85077;SDS011;75413;50.144;8.456;2024-01-15T01:36:59;29.63;;;12.32;;
85077;SDS011;75413;50.144;8.456;2024-01-15T01:42:28;21.45;;;8.45;;
85077;SDS011;75413;50.144;8.456;2024-01-15T01:45:12;25.05;;;12.60;;
85077;SDS011;75413;50.144;8.456;2024-01-15T01:47:56;28.95;;;12.68;;
85077;SDS011;75413;50.144;8.456;2024-01-15T01:50:40;58.30;;;30.38;;
85077;SDS011;75413;50.144;8.456;2024-01-15T01:53:27;45.05;;;22.48;;
85077;SDS011;75413;50.144;8.456;2024-01-15T01:56:13;47.42;;;21.42;;
85077;SDS011;75413;50.144;8.456;2024-01-15T01:59:01;22.42;;;9.48;;
85077;SDS011;75413;50.144;8.456;2024-01-15T02:01:47;38.90;;;19.13;;
85077;SDS011;75413;50.144;8.456;2024-01-15T02:04:32;25.85;;;11.70;;
85077;SDS011;75413;50.144;8.456;2024-01-15T02:07:16;27.33;;;13.52;;
85077;SDS011;75413;50.144;8.456;2024-01-15T02:10:01;33.70;;;14.02;;
85077;SDS011;75413;50.144;8.456;2024-01-15T02:12:45;38.65;;;17.88;;
85077;SDS011;75413;50.144;8.456;2024-01-15T02:15:31;30.65;;;12.88;;
85077;SDS011;75413;50.144;8.456;2024-01-15T02:18:15;54.38;;;21.52;;
85077;SDS011;75413;50.144;8.456;2024-01-15T02:20:59;39.30;;;16.23;;
85077;SDS011;75413;50.144;8.456;2024-01-15T02:23:43;41.45;;;21.90;;
85077;SDS011;75413;50.144;8.456;2024-01-15T02:26:27;24.35;;;10.75;;
85077;SDS011;75413;50.144;8.456;2024-01-15T02:29:12;30.85;;;15.32;;
85077;SDS011;75413;50.144;8.456;2024-01-15T02:31:56;22.08;;;9.45;;
85077;SDS011;75413;50.144;8.456;2024-01-15T02:34:40;19.02;;;7.97;;
85077;SDS011;75413;50.144;8.456;2024-01-15T02:37:27;21.65;;;8.93;;
85077;SDS011;75413;50.144;8.456;2024-01-15T02:40:11;55.13;;;24.40;;
85077;SDS011;75413;50.144;8.456;2024-01-15T02:42:55;30.70;;;11.88;;
85077;SDS011;75413;50.144;8.456;2024-01-15T02:45:39;24.92;;;11.85;;
85077;SDS011;75413;50.144;8.456;2024-01-15T02:48:23;24.65;;;11.70;;
85077;SDS011;75413;50.144;8.456;2024-01-15T02:51:07;23.73;;;10.57;;
85077;SDS011;75413;50.144;8.456;2024-01-15T02:53:51;20.13;;;9.52;;
85077;SDS011;75413;50.144;8.456;2024-01-15T02:56:36;22.58;;;9.23;;
85077;SDS011;75413;50.144;8.456;2024-01-15T02:59:22;36.40;;;19.33;;
85077;SDS011;75413;50.144;8.456;2024-01-15T03:02:06;19.20;;;8.80;;
85077;SDS011;75413;50.144;8.456;2024-01-15T03:04:50;20.27;;;8.65;;
85077;SDS011;75413;50.144;8.456;2024-01-15T03:07:34;19.63;;;8.00;;
85077;SDS011;75413;50.144;8.456;2024-01-15T03:10:19;18.25;;;8.60;;
85077;SDS011;75413;50.144;8.456;2024-01-15T03:13:03;20.63;;;8.18;;
85077;SDS011;75413;50.144;8.456;2024-01-15T03:15:47;19.50;;;9.25;;
85077;SDS011;75413;50.144;8.456;2024-01-15T03:18:30;18.55;;;9.57;;
85077;SDS011;75413;50.144;8.456;2024-01-15T03:21:15;20.50;;;8.82;;
85077;SDS011;75413;50.144;8.456;2024-01-15T03:23:58;22.13;;;9.02;;
85077;SDS011;75413;50.144;8.456;2024-01-15T03:26:42;15.82;;;8.18;;
85077;SDS011;75413;50.144;8.456;2024-01-15T03:29:26;17.60;;;8.77;;
85077;SDS011;75413;50.144;8.456;2024-01-15T03:32:10;19.45;;;8.43;;
85077;SDS011;75413;50.144;8.456;2024-01-15T03:34:54;18.45;;;7.20;;
85077;SDS011;75413;50.144;8.456;2024-01-15T03:37:38;23.45;;;8.27;;
85077;SDS011;75413;50.144;8.456;2024-01-15T03:40:22;19.90;;;8.90;;
85077;SDS011;75413;50.144;8.456;2024-01-15T03:43:09;20.17;;;8.18;;
85077;SDS011;75413;50.144;8.456;2024-01-15T03:45:53;19.10;;;8.52;;
85077;SDS011;75413;50.144;8.456;2024-01-15T03:48:37;18.30;;;7.60;;
85077;SDS011;75413;50.144;8.456;2024-01-15T03:51:21;21.70;;;8.13;;
85077;SDS011;75413;50.144;8.456;2024-01-15T03:54:05;20.67;;;8.68;;
85077;SDS011;75413;50.144;8.456;2024-01-15T03:56:49;17.00;;;6.85;;
85077;SDS011;75413;50.144;8.456;2024-01-15T03:59:36;21.30;;;8.73;;
85077;SDS011;75413;50.144;8.456;2024-01-15T04:02:26;18.50;;;7.30;;
85077;SDS011;75413;50.144;8.456;2024-01-15T04:05:10;21.55;;;8.25;;
85077;SDS011;75413;50.144;8.456;2024-01-15T04:08:03;20.48;;;8.63;;
85077;SDS011;75413;50.144;8.456;2024-01-15T04:10:47;21.73;;;8.32;;
85077;SDS011;75413;50.144;8.456;2024-01-15T04:13:32;18.50;;;9.30;;
85077;SDS011;75413;50.144;8.456;2024-01-15T04:19:00;16.60;;;7.25;;
85077;SDS011;75413;50.144;8.456;2024-01-15T04:21:44;18.90;;;7.97;;
85077;SDS011;75413;50.144;8.456;2024-01-15T04:24:28;17.77;;;8.32;;
85077;SDS011;75413;50.144;8.456;2024-01-15T04:27:12;18.95;;;7.72;;
85077;SDS011;75413;50.144;8.456;2024-01-15T04:29:56;18.02;;;8.20;;
85077;SDS011;75413;50.144;8.456;2024-01-15T04:32:40;19.48;;;8.45;;
85077;SDS011;75413;50.144;8.456;2024-01-15T04:35:24;17.08;;;7.70;;
85077;SDS011;75413;50.144;8.456;2024-01-15T04:38:11;19.00;;;7.72;;
85077;SDS011;75413;50.144;8.456;2024-01-15T04:40:58;22.65;;;8.63;;
85077;SDS011;75413;50.144;8.456;2024-01-15T04:43:42;16.55;;;7.65;;
85077;SDS011;75413;50.144;8.456;2024-01-15T04:46:26;17.33;;;7.78;;
85077;SDS011;75413;50.144;8.456;2024-01-15T04:49:10;18.15;;;7.97;;
85077;SDS011;75413;50.144;8.456;2024-01-15T04:51:58;15.95;;;7.30;;
85077;SDS011;75413;50.144;8.456;2024-01-15T04:54:42;23.33;;;8.45;;
85077;SDS011;75413;50.144;8.456;2024-01-15T04:57:26;18.92;;;8.82;;
85077;SDS011;75413;50.144;8.456;2024-01-15T05:00:10;14.32;;;7.97;;
85077;SDS011;75413;50.144;8.456;2024-01-15T05:02:55;19.38;;;7.85;;
85077;SDS011;75413;50.144;8.456;2024-01-15T05:05:39;17.50;;;7.63;;
85077;SDS011;75413;50.144;8.456;2024-01-15T05:08:23;17.58;;;7.28;;
85077;SDS011;75413;50.144;8.456;2024-01-15T05:11:10;16.30;;;7.63;;
85077;SDS011;75413;50.144;8.456;2024-01-15T05:13:54;15.80;;;6.97;;
85077;SDS011;75413;50.144;8.456;2024-01-15T05:16:38;18.60;;;8.27;;
85077;SDS011;75413;50.144;8.456;2024-01-15T05:19:23;20.42;;;8.52;;
85077;SDS011;75413;50.144;8.456;2024-01-15T05:22:07;17.50;;;7.97;;
85077;SDS011;75413;50.144;8.456;2024-01-15T05:24:51;21.25;;;8.88;;
85077;SDS011;75413;50.144;8.456;2024-01-15T05:27:35;18.08;;;8.10;;
85077;SDS011;75413;50.144;8.456;2024-01-15T05:30:19;20.27;;;8.63;;
85077;SDS011;75413;50.144;8.456;2024-01-15T05:33:03;22.95;;;7.72;;
85077;SDS011;75413;50.144;8.456;2024-01-15T05:38:31;17.52;;;7.63;;
85077;SDS011;75413;50.144;8.456;2024-01-15T05:41:15;17.90;;;6.80;;
85077;SDS011;75413;50.144;8.456;2024-01-15T05:43:59;19.88;;;8.40;;
85077;SDS011;75413;50.144;8.456;2024-01-15T05:46:46;17.60;;;7.72;;
85077;SDS011;75413;50.144;8.456;2024-01-15T05:49:30;18.52;;;8.00;;
85077;SDS011;75413;50.144;8.456;2024-01-15T05:52:14;18.88;;;8.60;;
85077;SDS011;75413;50.144;8.456;2024-01-15T05:54:58;19.13;;;7.93;;
85077;SDS011;75413;50.144;8.456;2024-01-15T05:57:45;19.10;;;8.55;;
85077;SDS011;75413;50.144;8.456;2024-01-15T06:00:29;16.58;;;8.38;;
85077;SDS011;75413;50.144;8.456;2024-01-15T06:03:13;17.90;;;8.10;;
85077;SDS011;75413;50.144;8.456;2024-01-15T06:05:57;17.83;;;7.70;;
85077;SDS011;75413;50.144;8.456;2024-01-15T06:08:41;17.98;;;7.78;;
85077;SDS011;75413;50.144;8.456;2024-01-15T06:11:29;21.08;;;8.55;;
85077;SDS011;75413;50.144;8.456;2024-01-15T06:14:13;21.10;;;8.57;;
85077;SDS011;75413;50.144;8.456;2024-01-15T06:16:58;20.10;;;8.23;;
85077;SDS011;75413;50.144;8.456;2024-01-15T06:19:41;14.77;;;7.85;;
85077;SDS011;75413;50.144;8.456;2024-01-15T06:22:26;20.45;;;7.53;;
85077;SDS011;75413;50.144;8.456;2024-01-15T06:25:09;18.17;;;7.63;;
85077;SDS011;75413;50.144;8.456;2024-01-15T06:27:53;20.13;;;7.78;;
85077;SDS011;75413;50.144;8.456;2024-01-15T06:30:37;18.45;;;8.23;;
85077;SDS011;75413;50.144;8.456;2024-01-15T06:33:23;20.80;;;9.20;;
85077;SDS011;75413;50.144;8.456;2024-01-15T06:36:07;20.85;;;8.25;;
85077;SDS011;75413;50.144;8.456;2024-01-15T06:38:51;18.63;;;8.90;;
85077;SDS011;75413;50.144;8.456;2024-01-15T06:41:35;21.92;;;9.00;;
85077;SDS011;75413;50.144;8.456;2024-01-15T06:44:21;17.88;;;8.68;;
85077;SDS011;75413;50.144;8.456;2024-01-15T06:47:05;18.73;;;7.25;;
85077;SDS011;75413;50.144;8.456;2024-01-15T06:49:50;37.53;;;9.95;;
85077;SDS011;75413;50.144;8.456;2024-01-15T06:52:35;19.45;;;8.20;;
85077;SDS011;75413;50.144;8.456;2024-01-15T06:55:19;19.98;;;8.57;;
85077;SDS011;75413;50.144;8.456;2024-01-15T06:58:03;21.45;;;8.80;;
85077;SDS011;75413;50.144;8.456;2024-01-15T07:00:47;17.67;;;8.60;;
85077;SDS011;75413;50.144;8.456;2024-01-15T07:03:37;17.75;;;8.30;;
85077;SDS011;75413;50.144;8.456;2024-01-15T07:06:21;18.20;;;8.40;;
85077;SDS011;75413;50.144;8.456;2024-01-15T07:09:05;21.52;;;9.85;;
85077;SDS011;75413;50.144;8.456;2024-01-15T07:14:34;27.15;;;9.93;;
85077;SDS011;75413;50.144;8.456;2024-01-15T07:17:18;20.75;;;8.93;;
85077;SDS011;75413;50.144;8.456;2024-01-15T07:20:02;23.27;;;9.43;;
85077;SDS011;75413;50.144;8.456;2024-01-15T07:22:47;29.20;;;14.20;;
85077;SDS011;75413;50.144;8.456;2024-01-15T07:25:31;22.25;;;11.00;;
85077;SDS011;75413;50.144;8.456;2024-01-15T07:28:15;23.15;;;10.23;;
85077;SDS011;75413;50.144;8.456;2024-01-15T07:33:45;19.98;;;9.35;;
85077;SDS011;75413;50.144;8.456;2024-01-15T07:36:30;18.95;;;9.23;;
85077;SDS011;75413;50.144;8.456;2024-01-15T07:39:14;20.75;;;9.57;;
85077;SDS011;75413;50.144;8.456;2024-01-15T07:41:58;23.27;;;9.50;;
85077;SDS011;75413;50.144;8.456;2024-01-15T07:44:42;26.48;;;9.20;;
85077;SDS011;75413;50.144;8.456;2024-01-15T07:47:26;21.10;;;8.57;;
85077;SDS011;75413;50.144;8.456;2024-01-15T07:50:14;19.15;;;9.55;;
85077;SDS011;75413;50.144;8.456;2024-01-15T07:53:01;20.52;;;8.73;;
85077;SDS011;75413;50.144;8.456;2024-01-15T07:55:45;27.00;;;10.00;;
85077;SDS011;75413;50.144;8.456;2024-01-15T07:58:29;20.00;;;9.05;;
85077;SDS011;75413;50.144;8.456;2024-01-15T08:01:13;21.33;;;9.20;;
85077;SDS011;75413;50.144;8.456;2024-01-15T08:03:57;20.23;;;9.98;;
85077;SDS011;75413;50.144;8.456;2024-01-15T08:06:41;20.33;;;8.68;;
85077;SDS011;75413;50.144;8.456;2024-01-15T08:09:25;18.75;;;8.95;;
85077;SDS011;75413;50.144;8.456;2024-01-15T08:12:09;16.83;;;8.30;;
85077;SDS011;75413;50.144;8.456;2024-01-15T08:14:54;21.05;;;8.65;;
85077;SDS011;75413;50.144;8.456;2024-01-15T08:17:37;22.50;;;9.35;;
85077;SDS011;75413;50.144;8.456;2024-01-15T08:20:21;20.63;;;8.63;;
85077;SDS011;75413;50.144;8.456;2024-01-15T08:23:06;17.73;;;9.20;;
85077;SDS011;75413;50.144;8.456;2024-01-15T08:25:50;22.35;;;9.05;;
85077;SDS011;75413;50.144;8.456;2024-01-15T08:28:34;21.25;;;8.75;;
85077;SDS011;75413;50.144;8.456;2024-01-15T08:31:18;20.05;;;8.73;;
85077;SDS011;75413;50.144;8.456;2024-01-15T08:34:02;21.35;;;9.82;;
85077;SDS011;75413;50.144;8.456;2024-01-15T08:36:46;28.52;;;13.23;;
85077;SDS011;75413;50.144;8.456;2024-01-15T08:39:30;20.40;;;9.48;;
85077;SDS011;75413;50.144;8.456;2024-01-15T08:42:14;21.60;;;9.32;;
85077;SDS011;75413;50.144;8.456;2024-01-15T08:44:58;19.63;;;9.13;;
85077;SDS011;75413;50.144;8.456;2024-01-15T08:47:42;20.83;;;10.88;;
85077;SDS011;75413;50.144;8.456;2024-01-15T08:50:26;21.10;;;10.93;;
85077;SDS011;75413;50.144;8.456;2024-01-15T08:53:10;21.58;;;9.77;;
85077;SDS011;75413;50.144;8.456;2024-01-15T08:55:54;16.48;;;8.20;;
85077;SDS011;75413;50.144;8.456;2024-01-15T08:58:38;21.02;;;10.43;;
85077;SDS011;75413;50.144;8.456;2024-01-15T09:01:22;21.75;;;10.18;;
85077;SDS011;75413;50.144;8.456;2024-01-15T09:04:07;19.45;;;9.18;;
85077;SDS011;75413;50.144;8.456;2024-01-15T09:06:50;19.35;;;9.70;;
85077;SDS011;75413;50.144;8.456;2024-01-15T09:09:34;19.58;;;7.93;;
85077;SDS011;75413;50.144;8.456;2024-01-15T09:12:19;19.02;;;10.50;;
85077;SDS011;75413;50.144;8.456;2024-01-15T09:15:04;15.60;;;8.98;;
85077;SDS011;75413;50.144;8.456;2024-01-15T09:20:33;17.80;;;8.32;;
85077;SDS011;75413;50.144;8.456;2024-01-15T09:23:16;22.45;;;10.10;;
85077;SDS011;75413;50.144;8.456;2024-01-15T09:26:01;20.23;;;10.38;;
85077;SDS011;75413;50.144;8.456;2024-01-15T09:28:44;15.32;;;7.45;;
85077;SDS011;75413;50.144;8.456;2024-01-15T09:31:29;16.38;;;10.00;;
85077;SDS011;75413;50.144;8.456;2024-01-15T09:34:12;19.92;;;10.32;;
85077;SDS011;75413;50.144;8.456;2024-01-15T09:36:56;20.70;;;10.40;;
85077;SDS011;75413;50.144;8.456;2024-01-15T09:39:40;20.20;;;9.43;;
85077;SDS011;75413;50.144;8.456;2024-01-15T09:42:25;16.48;;;8.27;;
85077;SDS011;75413;50.144;8.456;2024-01-15T09:45:09;17.58;;;8.35;;
85077;SDS011;75413;50.144;8.456;2024-01-15T09:47:54;12.63;;;7.25;;
85077;SDS011;75413;50.144;8.456;2024-01-15T09:50:38;28.27;;;13.57;;
85077;SDS011;75413;50.144;8.456;2024-01-15T09:53:22;20.73;;;9.15;;
85077;SDS011;75413;50.144;8.456;2024-01-15T09:56:07;21.17;;;9.52;;
85077;SDS011;75413;50.144;8.456;2024-01-15T09:58:53;15.23;;;8.88;;
85077;SDS011;75413;50.144;8.456;2024-01-15T10:04:23;19.60;;;9.38;;
85077;SDS011;75413;50.144;8.456;2024-01-15T10:09:52;84.78;;;34.22;;
85077;SDS011;75413;50.144;8.456;2024-01-15T10:12:36;19.15;;;9.27;;
85077;SDS011;75413;50.144;8.456;2024-01-15T10:15:22;40.10;;;19.65;;
85077;SDS011;75413;50.144;8.456;2024-01-15T10:18:07;21.20;;;9.48;;
85077;SDS011;75413;50.144;8.456;2024-01-15T10:20:51;16.10;;;8.88;;
85077;SDS011;75413;50.144;8.456;2024-01-15T10:23:35;19.05;;;9.40;;
85077;SDS011;75413;50.144;8.456;2024-01-15T10:26:24;15.85;;;8.60;;
85077;SDS011;75413;50.144;8.456;2024-01-15T10:29:08;24.33;;;12.18;;
85077;SDS011;75413;50.144;8.456;2024-01-15T10:32:00;22.88;;;10.00;;
85077;SDS011;75413;50.144;8.456;2024-01-15T10:34:45;22.20;;;12.85;;
85077;SDS011;75413;50.144;8.456;2024-01-15T10:37:32;11.65;;;6.07;;
85077;SDS011;75413;50.144;8.456;2024-01-15T10:40:24;23.15;;;12.88;;
85077;SDS011;75413;50.144;8.456;2024-01-15T10:43:08;16.92;;;9.18;;
85077;SDS011;75413;50.144;8.456;2024-01-15T10:45:52;20.17;;;9.90;;
85077;SDS011;75413;50.144;8.456;2024-01-15T10:48:36;18.45;;;8.57;;
85077;SDS011;75413;50.144;8.456;2024-01-15T10:51:20;19.95;;;11.20;;
85077;SDS011;75413;50.144;8.456;2024-01-15T10:54:05;26.50;;;13.65;;
85077;SDS011;75413;50.144;8.456;2024-01-15T10:56:53;20.90;;;11.15;;
85077;SDS011;75413;50.144;8.456;2024-01-15T10:59:39;12.80;;;7.57;;
85077;SDS011;75413;50.144;8.456;2024-01-15T11:02:26;15.57;;;6.95;;
85077;SDS011;75413;50.144;8.456;2024-01-15T11:05:11;13.52;;;7.10;;
85077;SDS011;75413;50.144;8.456;2024-01-15T11:07:55;13.80;;;7.60;;
85077;SDS011;75413;50.144;8.456;2024-01-15T11:10:45;16.42;;;7.00;;
85077;SDS011;75413;50.144;8.456;2024-01-15T11:16:20;11.82;;;7.20;;
85077;SDS011;75413;50.144;8.456;2024-01-15T11:21:50;12.85;;;7.25;;
85077;SDS011;75413;50.144;8.456;2024-01-15T11:30:31;10.35;;;5.68;;
85077;SDS011;75413;50.144;8.456;2024-01-15T11:36:18;16.35;;;9.10;;
85077;SDS011;75413;50.144;8.456;2024-01-15T11:39:28;17.65;;;8.57;;
85077;SDS011;75413;50.144;8.456;2024-01-15T11:42:12;12.25;;;6.10;;
85077;SDS011;75413;50.144;8.456;2024-01-15T11:44:57;13.20;;;7.05;;
85077;SDS011;75413;50.144;8.456;2024-01-15T11:50:47;9.85;;;6.47;;
85077;SDS011;75413;50.144;8.456;2024-01-15T11:53:36;13.77;;;7.93;;
85077;SDS011;75413;50.144;8.456;2024-01-15T11:56:24;8.57;;;5.25;;
85077;SDS011;75413;50.144;8.456;2024-01-15T11:59:11;14.13;;;7.45;;
85077;SDS011;75413;50.144;8.456;2024-01-15T12:01:58;13.13;;;6.72;;
85077;SDS011;75413;50.144;8.456;2024-01-15T12:04:42;11.23;;;6.78;;
85077;SDS011;75413;50.144;8.456;2024-01-15T12:07:26;12.07;;;6.43;;
85077;SDS011;75413;50.144;8.456;2024-01-15T12:10:10;11.75;;;6.75;;
85077;SDS011;75413;50.144;8.456;2024-01-15T12:12:59;11.98;;;6.63;;
85077;SDS011;75413;50.144;8.456;2024-01-15T12:15:47;12.98;;;6.68;;
85077;SDS011;75413;50.144;8.456;2024-01-15T12:18:31;11.43;;;6.07;;
85077;SDS011;75413;50.144;8.456;2024-01-15T12:21:15;7.90;;;5.35;;
85077;SDS011;75413;50.144;8.456;2024-01-15T12:24:00;10.40;;;5.05;;
85077;SDS011;75413;50.144;8.456;2024-01-15T12:26:44;12.40;;;6.68;;
85077;SDS011;75413;50.144;8.456;2024-01-15T12:29:28;12.02;;;7.60;;
85077;SDS011;75413;50.144;8.456;2024-01-15T12:32:12;12.68;;;7.30;;
85077;SDS011;75413;50.144;8.456;2024-01-15T12:34:56;6.32;;;4.07;;
85077;SDS011;75413;50.144;8.456;2024-01-15T12:37:41;8.27;;;4.10;;
85077;SDS011;75413;50.144;8.456;2024-01-15T12:40:30;12.35;;;6.65;;
85077;SDS011;75413;50.144;8.456;2024-01-15T12:43:17;6.53;;;3.78;;
85077;SDS011;75413;50.144;8.456;2024-01-15T12:46:07;10.15;;;6.38;;
85077;SDS011;75413;50.144;8.456;2024-01-15T12:48:52;8.73;;;3.92;;
85077;SDS011;75413;50.144;8.456;2024-01-15T12:51:36;7.18;;;4.47;;
85077;SDS011;75413;50.144;8.456;2024-01-15T12:54:20;10.70;;;4.80;;
85077;SDS011;75413;50.144;8.456;2024-01-15T12:57:07;9.20;;;4.55;;
85077;SDS011;75413;50.144;8.456;2024-01-15T13:02:38;6.78;;;3.63;;
85077;SDS011;75413;50.144;8.456;2024-01-15T13:05:24;4.78;;;3.33;;
85077;SDS011;75413;50.144;8.456;2024-01-15T13:08:11;7.35;;;4.00;;
85077;SDS011;75413;50.144;8.456;2024-01-15T13:10:55;6.05;;;2.92;;
85077;SDS011;75413;50.144;8.456;2024-01-15T13:13:43;9.25;;;3.92;;
85077;SDS011;75413;50.144;8.456;2024-01-15T13:16:30;7.25;;;3.88;;
85077;SDS011;75413;50.144;8.456;2024-01-15T13:19:14;8.25;;;4.68;;
85077;SDS011;75413;50.144;8.456;2024-01-15T13:21:59;7.35;;;3.65;;
85077;SDS011;75413;50.144;8.456;2024-01-15T13:24:43;6.80;;;3.35;;
85077;SDS011;75413;50.144;8.456;2024-01-15T13:27:30;8.70;;;4.22;;
85077;SDS011;75413;50.144;8.456;2024-01-15T13:30:14;6.65;;;2.95;;
85077;SDS011;75413;50.144;8.456;2024-01-15T13:32:58;8.65;;;4.18;;
85077;SDS011;75413;50.144;8.456;2024-01-15T13:35:48;8.05;;;3.78;;
85077;SDS011;75413;50.144;8.456;2024-01-15T13:38:33;6.32;;;3.30;;
85077;SDS011;75413;50.144;8.456;2024-01-15T13:41:20;4.97;;;3.00;;
85077;SDS011;75413;50.144;8.456;2024-01-15T13:44:13;8.05;;;3.55;;
85077;SDS011;75413;50.144;8.456;2024-01-15T13:46:57;5.93;;;3.58;;
85077;SDS011;75413;50.144;8.456;2024-01-15T13:49:42;5.43;;;3.70;;
85077;SDS011;75413;50.144;8.456;2024-01-15T13:52:26;5.47;;;2.50;;
85077;SDS011;75413;50.144;8.456;2024-01-15T13:55:11;4.43;;;2.30;;
85077;SDS011;75413;50.144;8.456;2024-01-15T13:57:55;4.53;;;2.65;;
85077;SDS011;75413;50.144;8.456;2024-01-15T14:00:42;4.78;;;2.17;;
85077;SDS011;75413;50.144;8.456;2024-01-15T14:03:26;6.15;;;2.72;;
85077;SDS011;75413;50.144;8.456;2024-01-15T14:06:10;5.82;;;3.13;;
85077;SDS011;75413;50.144;8.456;2024-01-15T14:08:54;5.35;;;3.28;;
85077;SDS011;75413;50.144;8.456;2024-01-15T14:11:38;5.72;;;2.33;;
85077;SDS011;75413;50.144;8.456;2024-01-15T14:14:22;7.18;;;2.83;;
85077;SDS011;75413;50.144;8.456;2024-01-15T14:19:53;4.32;;;3.05;;
85077;SDS011;75413;50.144;8.456;2024-01-15T14:22:40;3.50;;;2.33;;
85077;SDS011;75413;50.144;8.456;2024-01-15T14:25:24;4.45;;;2.40;;
85077;SDS011;75413;50.144;8.456;2024-01-15T14:28:17;14.35;;;3.10;;
85077;SDS011;75413;50.144;8.456;2024-01-15T14:31:01;9.07;;;4.22;;
85077;SDS011;75413;50.144;8.456;2024-01-15T14:33:46;7.72;;;2.67;;
85077;SDS011;75413;50.144;8.456;2024-01-15T14:36:30;6.53;;;3.28;;
85077;SDS011;75413;50.144;8.456;2024-01-15T14:39:14;7.30;;;3.53;;
85077;SDS011;75413;50.144;8.456;2024-01-15T14:41:58;6.28;;;3.10;;
85077;SDS011;75413;50.144;8.456;2024-01-15T14:44:42;7.60;;;3.00;;
85077;SDS011;75413;50.144;8.456;2024-01-15T14:47:26;4.85;;;3.15;;
85077;SDS011;75413;50.144;8.456;2024-01-15T14:50:11;5.40;;;2.33;;
85077;SDS011;75413;50.144;8.456;2024-01-15T14:52:56;5.15;;;3.03;;
85077;SDS011;75413;50.144;8.456;2024-01-15T14:55:40;7.47;;;3.22;;
85077;SDS011;75413;50.144;8.456;2024-01-15T14:58:24;6.53;;;3.22;;
85077;SDS011;75413;50.144;8.456;2024-01-15T15:01:08;6.68;;;3.10;;
85077;SDS011;75413;50.144;8.456;2024-01-15T15:03:52;7.22;;;3.55;;
85077;SDS011;75413;50.144;8.456;2024-01-15T15:06:36;6.38;;;3.42;;
85077;SDS011;75413;50.144;8.456;2024-01-15T15:09:23;5.82;;;3.35;;
85077;SDS011;75413;50.144;8.456;2024-01-15T15:12:07;6.18;;;2.83;;
85077;SDS011;75413;50.144;8.456;2024-01-15T15:14:52;4.63;;;2.60;;
85077;SDS011;75413;50.144;8.456;2024-01-15T15:20:21;4.30;;;2.72;;
85077;SDS011;75413;50.144;8.456;2024-01-15T15:23:05;4.53;;;2.70;;
85077;SDS011;75413;50.144;8.456;2024-01-15T15:25:52;9.27;;;3.22;;
85077;SDS011;75413;50.144;8.456;2024-01-15T15:28:36;6.07;;;3.05;;
85077;SDS011;75413;50.144;8.456;2024-01-15T15:31:20;6.15;;;2.72;;
85077;SDS011;75413;50.144;8.456;2024-01-15T15:34:04;4.57;;;2.35;;
85077;SDS011;75413;50.144;8.456;2024-01-15T15:36:48;4.28;;;2.65;;
85077;SDS011;75413;50.144;8.456;2024-01-15T15:39:32;8.30;;;4.07;;
85077;SDS011;75413;50.144;8.456;2024-01-15T15:42:16;7.53;;;2.88;;
85077;SDS011;75413;50.144;8.456;2024-01-15T15:45:00;6.03;;;3.05;;
85077;SDS011;75413;50.144;8.456;2024-01-15T15:47:44;3.33;;;1.70;;
85077;SDS011;75413;50.144;8.456;2024-01-15T15:50:27;4.22;;;2.13;;
85077;SDS011;75413;50.144;8.456;2024-01-15T15:53:11;6.13;;;2.80;;
85077;SDS011;75413;50.144;8.456;2024-01-15T15:55:55;5.45;;;2.38;;
85077;SDS011;75413;50.144;8.456;2024-01-15T15:58:39;5.22;;;2.13;;
85077;SDS011;75413;50.144;8.456;2024-01-15T16:01:26;4.38;;;2.30;;
85077;SDS011;75413;50.144;8.456;2024-01-15T16:04:10;6.35;;;2.22;;
85077;SDS011;75413;50.144;8.456;2024-01-15T16:06:54;6.60;;;2.30;;
85077;SDS011;75413;50.144;8.456;2024-01-15T16:09:39;4.50;;;2.50;;
85077;SDS011;75413;50.144;8.456;2024-01-15T16:12:23;3.30;;;2.05;;
85077;SDS011;75413;50.144;8.456;2024-01-15T16:15:17;3.20;;;1.90;;
85077;SDS011;75413;50.144;8.456;2024-01-15T16:18:05;3.70;;;2.47;;
85077;SDS011;75413;50.144;8.456;2024-01-15T16:20:50;6.63;;;2.60;;
85077;SDS011;75413;50.144;8.456;2024-01-15T16:23:34;5.25;;;3.10;;
85077;SDS011;75413;50.144;8.456;2024-01-15T16:26:18;6.63;;;4.20;;
85077;SDS011;75413;50.144;8.456;2024-01-15T16:31:46;7.65;;;2.50;;
85077;SDS011;75413;50.144;8.456;2024-01-15T16:34:30;3.47;;;2.10;;
85077;SDS011;75413;50.144;8.456;2024-01-15T16:37:14;5.07;;;2.05;;
85077;SDS011;75413;50.144;8.456;2024-01-15T16:39:57;5.53;;;3.55;;
85077;SDS011;75413;50.144;8.456;2024-01-15T16:42:44;5.32;;;2.40;;
85077;SDS011;75413;50.144;8.456;2024-01-15T16:45:29;5.60;;;3.17;;
85077;SDS011;75413;50.144;8.456;2024-01-15T16:48:13;3.67;;;1.88;;
85077;SDS011;75413;50.144;8.456;2024-01-15T16:50:57;3.20;;;1.88;;
85077;SDS011;75413;50.144;8.456;2024-01-15T16:53:41;4.75;;;2.08;;
85077;SDS011;75413;50.144;8.456;2024-01-15T16:56:25;16.83;;;2.17;;
85077;SDS011;75413;50.144;8.456;2024-01-15T16:59:10;5.95;;;2.05;;
85077;SDS011;75413;50.144;8.456;2024-01-15T17:01:54;4.93;;;1.90;;
85077;SDS011;75413;50.144;8.456;2024-01-15T17:04:38;3.55;;;1.70;;
85077;SDS011;75413;50.144;8.456;2024-01-15T17:07:25;6.10;;;2.65;;
85077;SDS011;75413;50.144;8.456;2024-01-15T17:10:09;3.17;;;1.70;;